Time;durP1;ratioP1;P1;durP2;ratioP2;P2;SDS_P1;SDS_P2;PMS_P1;PMS_P2;Temp;Humidity;BMP_temperature;BMP_pressure;BME280_temperature;BME280_humidity;BME280_pressure;Samples;Min_cycle;Max_cycle;Signal;HPM_P1;HPM_P2
2024/01/12 00:02:26;;;;;;;39.35;21.42;;;;;;;-8.04;100.00;98484.78;5029765;28;20408;-64
2024/01/12 00:04:52;;;;;;;36.35;20.17;;;;;;;-8.10;100.00;98488.69;5029557;28;20040;-64
2024/01/12 00:07:19;;;;;;;40.50;19.77;;;;;;;-8.08;100.00;98484.13;5038354;28;20128;-64
2024/01/12 00:09:46;;;;;;;40.13;19.27;;;;;;;-8.09;100.00;98487.72;5036302;28;20041;-64
2024/01/12 00:12:12;;;;;;;39.47;19.67;;;;;;;-8.08;100.00;98489.41;5039463;28;20044;-64
2024/01/12 00:14:39;;;;;;;40.75;20.92;;;;;;;-8.09;100.00;98477.19;5037941;28;20049;-63
2024/01/12 00:17:05;;;;;;;33.45;18.77;;;;;;;-8.07;100.00;98485.00;5034404;28;20405;-64
2024/01/12 00:19:32;;;;;;;36.38;19.85;;;;;;;-8.05;100.00;98486.56;5035602;28;20115;-65
2024/01/12 00:21:58;;;;;;;45.10;20.75;;;;;;;-8.05;100.00;98491.81;5036355;28;20045;-64
2024/01/12 00:24:25;;;;;;;42.17;21.13;;;;;;;-8.13;100.00;98502.88;5046088;28;20037;-64
2024/01/12 00:26:52;;;;;;;37.95;19.70;;;;;;;-8.20;100.00;98498.97;5047398;28;20306;-64
2024/01/12 00:29:18;;;;;;;39.72;20.05;;;;;;;-8.25;100.00;98501.06;5029616;28;20456;-64
2024/01/12 00:31:45;;;;;;;39.45;18.98;;;;;;;-8.27;100.00;98498.53;5035384;28;20049;-64
2024/01/12 00:34:11;;;;;;;33.50;17.05;;;;;;;-8.28;100.00;98494.25;5037828;28;20048;-64
2024/01/12 00:36:38;;;;;;;36.17;19.77;;;;;;;-8.30;100.00;98497.91;5045758;28;20467;-64
2024/01/12 00:39:05;;;;;;;41.20;18.52;;;;;;;-8.32;100.00;98502.44;5042415;28;20049;-64
2024/01/12 00:41:31;;;;;;;35.42;17.98;;;;;;;-8.34;100.00;98497.28;5037964;28;20050;-64
2024/01/12 00:43:59;;;;;;;36.78;17.60;;;;;;;-8.34;100.00;98502.53;5033711;28;20312;-64
2024/01/12 00:46:27;;;;;;;28.67;15.80;;;;;;;-8.34;100.00;98505.16;5030956;28;20037;-64
2024/01/12 00:48:53;;;;;;;35.35;17.50;;;;;;;-8.28;100.00;98504.75;5036770;28;20046;-64
2024/01/12 00:51:20;;;;;;;35.42;18.10;;;;;;;-8.24;100.00;98508.84;5035557;28;20049;-64
2024/01/12 00:53:46;;;;;;;33.40;18.35;;;;;;;-8.29;100.00;98503.03;5027898;28;20041;-64
2024/01/12 00:56:13;;;;;;;33.10;18.33;;;;;;;-8.29;100.00;98496.97;5036964;28;20045;-64
2024/01/12 00:58:39;;;;;;;34.35;16.20;;;;;;;-8.25;100.00;98499.28;5030492;28;20037;-64
2024/01/12 01:01:06;;;;;;;40.42;17.55;;;;;;;-8.24;100.00;98494.88;5043019;28;20504;-64
2024/01/12 01:03:33;;;;;;;40.90;19.40;;;;;;;-8.22;100.00;98493.00;5032863;28;20045;-64
2024/01/12 01:05:59;;;;;;;38.85;19.13;;;;;;;-8.10;100.00;98491.31;5035024;28;20745;-64
2024/01/12 01:08:26;;;;;;;32.90;19.95;;;;;;;-8.07;100.00;98496.34;5028311;28;20041;-63
2024/01/12 01:10:52;;;;;;;35.42;17.75;;;;;;;-8.11;100.00;98500.13;5034086;28;20277;-63
2024/01/12 01:13:19;;;;;;;35.30;17.55;;;;;;;-8.12;100.00;98493.19;5035256;28;20581;-64
2024/01/12 01:15:46;;;;;;;33.10;17.58;;;;;;;-8.11;100.00;98500.97;5029403;28;20087;-63
2024/01/12 01:18:12;;;;;;;34.20;17.40;;;;;;;-8.12;100.00;98512.44;5036662;28;20120;-64
2024/01/12 01:20:39;;;;;;;29.20;17.48;;;;;;;-8.18;100.00;98507.59;5042780;28;20617;-64
2024/01/12 01:23:06;;;;;;;34.58;17.63;;;;;;;-8.28;100.00;98499.50;5031827;28;20060;-64
2024/01/12 01:25:33;;;;;;;40.00;19.50;;;;;;;-8.31;100.00;98509.34;5033114;28;20065;-64
2024/01/12 01:28:01;;;;;;;37.25;19.15;;;;;;;-8.40;100.00;98511.66;5039061;28;20037;-64
2024/01/12 01:30:28;;;;;;;34.30;17.48;;;;;;;-8.39;100.00;98513.38;5039546;28;20111;-64
2024/01/12 01:32:55;;;;;;;36.55;19.30;;;;;;;-8.41;100.00;98514.41;5039593;28;20044;-64
2024/01/12 01:35:21;;;;;;;37.03;18.58;;;;;;;-8.41;100.00;98514.41;5046337;28;20067;-65
2024/01/12 01:37:50;;;;;;;32.20;17.40;;;;;;;-8.43;100.00;98511.88;5036827;28;20645;-64
2024/01/12 01:40:16;;;;;;;29.52;16.25;;;;;;;-8.37;100.00;98519.34;5033776;28;20569;-62
2024/01/12 01:42:47;;;;;;;35.20;18.08;;;;;;;-8.25;100.00;98520.28;5042052;28;20041;-64
2024/01/12 01:45:14;;;;;;;42.95;18.98;;;;;;;-8.18;100.00;98520.75;5040407;28;20055;-64
2024/01/12 01:47:45;;;;;;;37.72;18.17;;;;;;;-8.16;100.00;98521.47;5031876;28;20477;-64
2024/01/12 01:50:14;;;;;;;39.75;18.17;;;;;;;-8.08;100.00;98528.00;5042679;28;20064;-64
2024/01/12 01:52:43;;;;;;;39.55;18.83;;;;;;;-8.08;100.00;98523.56;5038303;28;20044;-64
2024/01/12 01:55:12;;;;;;;32.42;17.50;;;;;;;-8.07;100.00;98527.03;5045365;28;20052;-64
2024/01/12 01:57:42;;;;;;;33.80;16.60;;;;;;;-8.11;100.00;98524.63;5035585;28;20772;-64
2024/01/12 02:00:12;;;;;;;39.70;18.17;;;;;;;-8.11;100.00;98521.16;5038329;28;20049;-64
2024/01/12 02:02:39;;;;;;;32.03;17.30;;;;;;;-8.17;100.00;98522.41;5047046;28;20562;-64
2024/01/12 02:05:10;;;;;;;36.63;17.42;;;;;;;-8.18;100.00;98520.75;5032481;28;20045;-64
2024/01/12 02:07:37;;;;;;;33.72;16.95;;;;;;;-8.14;100.00;98518.75;5035606;28;20030;-64
2024/01/12 02:10:06;;;;;;;39.28;19.27;;;;;;;-8.10;100.00;98523.66;5042691;28;20040;-64
2024/01/12 02:12:36;;;;;;;33.83;18.58;;;;;;;-8.13;100.00;98515.16;5036731;28;20041;-64
2024/01/12 02:15:07;;;;;;;39.40;18.65;;;;;;;-8.30;100.00;98519.75;5039163;28;20118;-64
2024/01/12 02:17:34;;;;;;;27.17;15.88;;;;;;;-8.31;100.00;98519.88;5033149;28;20037;-64
2024/01/12 02:20:02;;;;;;;38.80;18.73;;;;;;;-8.37;100.00;98515.88;5032416;28;20075;-64
2024/01/12 02:22:29;;;;;;;39.38;17.70;;;;;;;-8.33;100.00;98512.13;5039263;28;20099;-64
2024/01/12 02:24:55;;;;;;;34.35;17.75;;;;;;;-8.31;100.00;98519.88;5030354;28;20048;-64
2024/01/12 02:27:22;;;;;;;37.83;18.02;;;;;;;-8.28;100.00;98514.41;5030198;28;20514;-64
2024/01/12 02:29:51;;;;;;;34.70;19.23;;;;;;;-8.33;100.00;98516.50;5041707;28;20529;-64
2024/01/12 02:32:18;;;;;;;34.35;17.92;;;;;;;-8.37;100.00;98510.63;5037850;28;20065;-64
2024/01/12 02:34:44;;;;;;;40.03;17.65;;;;;;;-8.44;100.00;98515.44;5038948;28;20041;-64
2024/01/12 02:37:11;;;;;;;39.63;18.60;;;;;;;-8.45;100.00;98507.69;5021205;28;20550;-63
2024/01/12 02:39:37;;;;;;;34.95;17.25;;;;;;;-8.41;100.00;98503.91;5037709;28;20052;-64
2024/01/12 02:42:04;;;;;;;35.10;17.15;;;;;;;-8.36;100.00;98507.06;5030002;28;20071;-64
2024/01/12 02:44:30;;;;;;;37.67;17.73;;;;;;;-8.29;100.00;98503.03;5028427;28;20038;-64
2024/01/12 02:46:57;;;;;;;36.00;19.27;;;;;;;-8.34;100.00;98502.53;5033064;28;20052;-64
2024/01/12 02:49:24;;;;;;;36.83;17.75;;;;;;;-8.39;100.00;98500.22;5033688;28;20106;-64
2024/01/12 02:51:50;;;;;;;33.95;17.52;;;;;;;-8.36;100.00;98504.44;5035082;28;20055;-64
2024/01/12 02:54:17;;;;;;;34.88;17.40;;;;;;;-8.31;100.00;98502.31;5041737;28;20045;-64
2024/01/12 02:56:43;;;;;;;30.10;15.45;;;;;;;-8.36;100.00;98494.75;5039947;28;20037;-64
2024/01/12 02:59:10;;;;;;;32.20;18.10;;;;;;;-8.37;100.00;98498.31;5042068;28;20040;-64
2024/01/12 03:01:36;;;;;;;28.05;17.40;;;;;;;-8.44;100.00;98490.97;5039118;28;20052;-64
2024/01/12 03:04:03;;;;;;;39.47;17.80;;;;;;;-8.43;100.00;98496.13;5027534;28;20479;-64
2024/01/12 03:06:29;;;;;;;31.08;16.67;;;;;;;-8.38;100.00;98494.03;5043158;28;20071;-64
2024/01/12 03:08:56;;;;;;;32.88;15.48;;;;;;;-8.41;100.00;98494.22;5032983;28;20056;-65
2024/01/12 03:11:23;;;;;;;39.65;17.95;;;;;;;-8.49;100.00;98484.22;5031949;28;20041;-64
2024/01/12 03:13:49;;;;;;;31.60;16.95;;;;;;;-8.48;100.00;98485.06;5034765;28;20102;-64
2024/01/12 03:16:20;;;;;;;38.05;16.95;;;;;;;-8.53;100.00;98490.66;5027471;28;20140;-65
2024/01/12 03:18:48;;;;;;;34.78;18.27;;;;;;;-8.58;100.00;98490.13;5026721;28;20750;-64
2024/01/12 03:21:18;;;;;;;32.58;15.60;;;;;;;-8.60;100.00;98488.56;5040600;28;20114;-64
2024/01/12 03:23:45;;;;;;;31.15;16.52;;;;;;;-8.61;100.00;98485.09;5034362;28;20229;-64
2024/01/12 03:26:11;;;;;;;29.40;15.68;;;;;;;-8.64;100.00;98487.91;5027882;28;20045;-63
2024/01/12 03:28:38;;;;;;;33.10;15.98;;;;;;;-8.59;100.00;98480.56;5035460;28;20124;-64
2024/01/12 03:31:06;;;;;;;36.30;16.38;;;;;;;-8.59;100.00;98492.88;5027875;28;20033;-64
2024/01/12 03:33:33;;;;;;;31.45;15.82;;;;;;;-8.58;100.00;98490.13;5034055;28;20045;-64
2024/01/12 03:36:00;;;;;;;28.17;15.40;;;;;;;-8.62;100.00;98493.91;5043567;28;20049;-64
2024/01/12 03:38:27;;;;;;;29.10;15.63;;;;;;;-8.60;100.00;98488.56;5034043;28;20417;-64
2024/01/12 03:40:53;;;;;;;32.53;15.95;;;;;;;-8.54;100.00;98490.78;5036009;28;20196;-64
2024/01/12 03:43:20;;;;;;;36.30;16.23;;;;;;;-8.50;100.00;98481.72;5033896;28;20029;-64
2024/01/12 03:45:46;;;;;;;27.90;14.63;;;;;;;-8.42;100.00;98481.19;5035696;28;20047;-64
2024/01/12 03:48:13;;;;;;;40.13;18.02;;;;;;;-8.37;100.00;98500.13;5037717;28;20035;-64
2024/01/12 03:50:39;;;;;;;33.88;15.68;;;;;;;-8.33;100.00;98492.88;5038947;28;20033;-64
2024/01/12 03:53:06;;;;;;;31.95;17.33;;;;;;;-8.35;100.00;98487.72;5035109;28;20124;-63
2024/01/12 03:55:33;;;;;;;29.65;16.17;;;;;;;-8.54;100.00;98493.41;5033235;28;20404;-63
2024/01/12 03:57:59;;;;;;;33.28;16.65;;;;;;;-8.46;100.00;98501.56;5033562;28;20704;-63
2024/01/12 04:00:26;;;;;;;34.80;17.08;;;;;;;-8.49;100.00;98494.75;5039628;28;20485;-64
2024/01/12 04:02:52;;;;;;;30.75;17.27;;;;;;;-8.76;100.00;98484.31;5033198;28;20060;-64
2024/01/12 04:05:19;;;;;;;31.90;15.43;;;;;;;-8.77;100.00;98475.59;5031871;28;20041;-64
2024/01/12 04:07:45;;;;;;;35.03;15.80;;;;;;;-8.72;100.00;98482.31;5034231;28;20040;-64
2024/01/12 04:10:12;;;;;;;28.80;15.27;;;;;;;-8.78;100.00;98483.56;5039534;28;20069;-63
2024/01/12 04:12:39;;;;;;;32.75;16.90;;;;;;;-8.68;100.00;98479.41;5037704;28;20041;-63
2024/01/12 04:15:07;;;;;;;31.85;17.48;;;;;;;-8.80;100.00;98481.06;5041444;28;20040;-63
2024/01/12 04:17:33;;;;;;;34.20;17.60;;;;;;;-8.85;100.00;98483.13;5038162;28;20037;-64
2024/01/12 04:20:00;;;;;;;37.83;18.80;;;;;;;-8.75;100.00;98481.59;5040075;28;20523;-63
2024/01/12 04:22:27;;;;;;;30.02;16.83;;;;;;;-8.78;100.00;98481.78;5039285;28;20048;-63
2024/01/12 04:24:54;;;;;;;31.88;16.33;;;;;;;-8.89;100.00;98476.41;5035211;28;20212;-63
2024/01/12 04:27:20;;;;;;;37.38;18.13;;;;;;;-8.93;100.00;98480.16;5033464;28;20048;-63
2024/01/12 04:29:47;;;;;;;33.20;15.50;;;;;;;-8.96;100.00;98472.50;5039290;28;20098;-63
2024/01/12 04:32:13;;;;;;;26.80;16.67;;;;;;;-8.97;100.00;98484.78;5038661;28;20254;-63
2024/01/12 04:34:40;;;;;;;38.10;17.38;;;;;;;-9.03;100.00;98488.66;5030045;28;20073;-64
2024/01/12 04:37:07;;;;;;;35.10;16.42;;;;;;;-9.04;100.00;98491.38;5028699;28;20163;-63
2024/01/12 04:39:33;;;;;;;35.92;16.08;;;;;;;-9.08;100.00;98493.34;5038375;28;20049;-63
2024/01/12 04:42:00;;;;;;;30.83;15.18;;;;;;;-9.08;100.00;98493.34;5036928;28;20099;-63
2024/01/12 04:44:27;;;;;;;31.08;16.55;;;;;;;-9.15;100.00;98495.53;5038295;28;20090;-64
2024/01/12 04:46:53;;;;;;;31.55;14.20;;;;;;;-9.13;100.00;98508.56;5043263;28;20133;-64
2024/01/12 04:49:20;;;;;;;26.63;14.25;;;;;;;-9.07;100.00;98507.34;5029437;28;20037;-63
2024/01/12 04:51:46;;;;;;;29.30;14.65;;;;;;;-9.11;100.00;98511.09;5032770;28;20211;-63
2024/01/12 04:54:13;;;;;;;31.90;16.15;;;;;;;-9.18;100.00;98494.91;5033691;28;20036;-63
2024/01/12 04:56:40;;;;;;;30.08;14.70;;;;;;;-9.24;100.00;98505.78;5033938;28;20431;-63
2024/01/12 04:59:06;;;;;;;29.58;15.32;;;;;;;-9.28;100.00;98516.47;5040954;28;20036;-64
2024/01/12 05:01:33;;;;;;;28.58;16.40;;;;;;;-9.33;100.00;98513.28;5030693;28;20246;-63
2024/01/12 05:04:00;;;;;;;36.35;17.73;;;;;;;-9.37;100.00;98511.78;5033762;28;20052;-63
2024/01/12 05:06:26;;;;;;;31.67;13.95;;;;;;;-9.20;100.00;98517.75;5041464;28;20040;-63
2024/01/12 05:08:53;;;;;;;31.95;15.57;;;;;;;-9.31;100.00;98528.94;5038819;28;20048;-63
2024/01/12 05:11:24;;;;;;;28.65;15.73;;;;;;;-9.34;100.00;98532.59;5034473;28;20106;-63
2024/01/12 05:13:51;;;;;;;33.00;17.17;;;;;;;-9.32;100.00;98528.09;5039513;28;20033;-63
2024/01/12 05:16:17;;;;;;;31.05;16.90;;;;;;;-9.43;100.00;98533.19;5045872;28;20044;-64
2024/01/12 05:18:44;;;;;;;33.45;16.85;;;;;;;-9.47;100.00;98526.44;5045037;28;20523;-63
2024/01/12 05:21:11;;;;;;;33.80;17.05;;;;;;;-9.53;100.00;98535.53;5041029;28;20041;-63
2024/01/12 05:23:37;;;;;;;33.28;15.25;;;;;;;-9.50;100.00;98543.22;5029925;28;20124;-63
2024/01/12 05:26:04;;;;;;;33.10;16.00;;;;;;;-9.46;100.00;98543.84;5033885;28;20052;-63
2024/01/12 05:28:30;;;;;;;27.95;14.13;;;;;;;-9.44;100.00;98544.63;5043383;28;20040;-64
2024/01/12 05:30:57;;;;;;;31.10;15.32;;;;;;;-9.41;100.00;98555.75;5046785;28;20048;-63
2024/01/12 05:33:24;;;;;;;28.30;15.10;;;;;;;-9.44;100.00;98542.81;5049128;28;20301;-63
2024/01/12 05:35:50;;;;;;;28.83;15.38;;;;;;;-9.43;100.00;98539.25;5035481;28;20120;-64
2024/01/12 05:38:17;;;;;;;27.45;13.48;;;;;;;-9.51;100.00;98525.81;5043469;28;20589;-63
2024/01/12 05:40:43;;;;;;;24.52;13.68;;;;;;;-9.43;100.00;98528.75;5048784;28;20045;-63
2024/01/12 05:43:10;;;;;;;28.88;15.45;;;;;;;-9.50;100.00;98527.47;5052057;28;20097;-63
2024/01/12 05:45:36;;;;;;;29.05;15.88;;;;;;;-9.55;100.00;98522.50;5037773;28;20044;-64
2024/01/12 05:48:03;;;;;;;29.90;16.65;;;;;;;-9.54;100.00;98521.56;5041137;28;20037;-63
2024/01/12 05:50:30;;;;;;;29.65;14.82;;;;;;;-9.51;100.00;98520.56;5040346;28;20037;-63
2024/01/12 05:52:56;;;;;;;30.08;15.60;;;;;;;-9.53;100.00;98517.16;5045410;28;20996;-63
2024/01/12 05:55:23;;;;;;;31.05;17.67;;;;;;;-9.51;100.00;98509.22;5038155;28;20137;-63
2024/01/12 05:57:50;;;;;;;36.47;18.38;;;;;;;-9.53;100.00;98517.16;5031452;28;20044;-64
2024/01/12 06:00:16;;;;;;;34.28;17.60;;;;;;;-9.51;100.00;98523.19;5037970;28;20048;-64
2024/01/12 06:02:43;;;;;;;31.10;15.63;;;;;;;-9.47;100.00;98527.25;5037864;28;20133;-63
2024/01/12 06:05:10;;;;;;;32.92;17.73;;;;;;;-9.47;100.00;98521.19;5046003;28;20044;-63
2024/01/12 06:07:36;;;;;;;34.70;18.95;;;;;;;-9.42;100.00;98529.59;5037726;28;20045;-63
2024/01/12 06:10:04;;;;;;;40.05;16.80;;;;;;;-9.32;100.00;98530.72;5042578;28;20520;-64
2024/01/12 06:12:31;;;;;;;34.60;17.70;;;;;;;-9.36;100.00;98528.38;5036443;28;20047;-63
2024/01/12 06:14:59;;;;;;;32.08;17.50;;;;;;;-9.39;100.00;98513.69;5035978;28;20446;-63
2024/01/12 06:17:26;;;;;;;31.23;17.20;;;;;;;-9.48;100.00;98511.66;5038030;28;20551;-64
2024/01/12 06:19:54;;;;;;;35.15;17.70;;;;;;;-9.49;100.00;98516.03;5046505;28;20036;-64
2024/01/12 06:22:20;;;;;;;31.60;15.65;;;;;;;-9.34;100.00;98514.22;5037576;28;20045;-63
2024/01/12 06:24:47;;;;;;;30.38;15.25;;;;;;;-9.35;100.00;98507.31;5039347;28;20047;-63
2024/01/12 06:27:13;;;;;;;39.08;17.20;;;;;;;-9.45;100.00;98514.91;5032965;28;20521;-63
2024/01/12 06:29:40;;;;;;;33.20;18.40;;;;;;;-9.51;100.00;98525.81;5045270;28;20134;-63
2024/01/12 06:32:06;;;;;;;25.00;14.70;;;;;;;-9.49;100.00;98528.31;5044283;28;20053;-63
2024/01/12 06:34:39;;;;;;;34.10;16.23;;;;;;;-9.45;100.00;98517.53;5040691;28;20040;-63
2024/01/12 06:37:05;;;;;;;35.97;15.95;;;;;;;-9.50;100.00;98510.88;5030189;28;20063;-63
2024/01/12 06:39:32;;;;;;;36.95;18.40;;;;;;;-9.51;100.00;98519.69;5038137;28;20067;-62
2024/01/12 06:41:59;;;;;;;28.38;15.73;;;;;;;-9.48;100.00;98511.66;5046264;28;20041;-62
2024/01/12 06:44:25;;;;;;;37.08;18.35;;;;;;;-9.51;100.00;98504.81;5037703;28;20041;-62
2024/01/12 06:46:52;;;;;;;32.33;16.65;;;;;;;-9.47;100.00;98502.84;5037138;28;20068;-62
2024/01/12 06:49:18;;;;;;;29.52;18.08;;;;;;;-9.40;100.00;98501.53;5037806;28;20500;-62
2024/01/12 06:51:46;;;;;;;34.97;17.80;;;;;;;-9.31;100.00;98514.06;5040656;28;20552;-62
2024/01/12 06:54:13;;;;;;;32.88;17.48;;;;;;;-9.27;100.00;98512.06;5041954;28;20060;-62
2024/01/12 06:56:41;;;;;;;33.75;18.25;;;;;;;-9.20;100.00;98512.50;5036161;28;20041;-62
2024/01/12 06:59:08;;;;;;;33.63;16.98;;;;;;;-9.15;100.00;98515.66;5042487;28;20102;-62
2024/01/12 07:01:34;;;;;;;32.22;15.65;;;;;;;-9.14;100.00;98515.59;5042140;28;20431;-62
2024/01/12 07:04:01;;;;;;;29.35;17.90;;;;;;;-9.08;100.00;98506.47;5047165;28;20058;-62
2024/01/12 07:06:28;;;;;;;33.33;17.00;;;;;;;-9.00;100.00;98513.84;5043572;28;20136;-61
2024/01/12 07:08:55;;;;;;;33.05;17.42;;;;;;;-9.02;100.00;98521.00;5041701;28;20045;-61
2024/01/12 07:11:23;;;;;;;28.55;17.58;;;;;;;-8.99;100.00;98515.56;5034449;28;20045;-61
2024/01/12 07:13:49;;;;;;;38.22;18.08;;;;;;;-8.96;100.00;98525.81;5041520;28;20041;-61
2024/01/12 07:16:16;;;;;;;36.60;15.85;;;;;;;-8.93;100.00;98516.91;5043027;28;20051;-60
2024/01/12 07:18:42;;;;;;;34.90;17.90;;;;;;;-9.04;100.00;98517.59;5043737;28;20047;-61
2024/01/12 07:21:09;;;;;;;36.00;16.27;;;;;;;-9.05;100.00;98518.56;5042066;28;20147;-61
2024/01/12 07:23:36;;;;;;;28.17;15.52;;;;;;;-9.10;100.00;98512.78;5027847;28;20222;-60
2024/01/12 07:26:02;;;;;;;40.35;17.33;;;;;;;-9.02;100.00;98511.34;5042885;28;20052;-61
2024/01/12 07:28:30;;;;;;;35.85;16.63;;;;;;;-9.06;100.00;98520.34;5048087;28;20390;-61
2024/01/12 07:30:57;;;;;;;31.10;15.98;;;;;;;-9.02;100.00;98521.00;5042177;28;20128;-61
2024/01/12 07:33:23;;;;;;;29.08;16.00;;;;;;;-8.98;100.00;98519.84;5048150;28;20123;-61
2024/01/12 07:35:50;;;;;;;33.13;15.95;;;;;;;-8.98;100.00;98519.84;5028702;28;20045;-61
2024/01/12 07:38:18;;;;;;;32.40;17.45;;;;;;;-8.93;100.00;98523.00;5026575;28;20420;-61
2024/01/12 07:40:44;;;;;;;36.60;15.95;;;;;;;-8.94;100.00;98529.22;5032769;28;20272;-61
2024/01/12 07:43:11;;;;;;;29.83;15.98;;;;;;;-8.97;100.00;98521.53;5039831;28;20045;-61
2024/01/12 07:45:37;;;;;;;31.80;16.33;;;;;;;-8.94;100.00;98528.34;5044849;28;20037;-61
2024/01/12 07:48:04;;;;;;;29.90;16.38;;;;;;;-8.94;100.00;98534.47;5037017;28;20271;-61
2024/01/12 07:50:31;;;;;;;36.17;16.45;;;;;;;-9.01;100.00;98526.16;5032863;28;20033;-61
2024/01/12 07:52:58;;;;;;;25.73;16.73;;;;;;;-9.08;100.00;98531.88;5038744;28;20053;-61
2024/01/12 07:55:24;;;;;;;24.95;14.25;;;;;;;-9.12;100.00;98539.09;5036509;28;20762;-61
2024/01/12 07:57:51;;;;;;;27.95;14.50;;;;;;;-9.12;100.00;98543.50;5038487;28;20048;-61
2024/01/12 08:00:18;;;;;;;33.65;16.40;;;;;;;-9.11;100.00;98537.34;5034344;28;20046;-61
2024/01/12 08:02:44;;;;;;;33.60;15.75;;;;;;;-9.05;100.00;98544.81;5031726;28;20048;-63
2024/01/12 08:05:11;;;;;;;30.50;16.65;;;;;;;-8.94;100.00;98544.97;5048667;28;20040;-61
2024/01/12 08:07:38;;;;;;;35.17;16.52;;;;;;;-8.86;100.00;98549.72;5032522;28;20072;-61
2024/01/12 08:10:05;;;;;;;30.60;15.68;;;;;;;-8.76;100.00;98542.09;5035052;28;20051;-61
2024/01/12 08:12:31;;;;;;;38.33;16.15;;;;;;;-8.78;100.00;98546.56;5037714;28;20496;-60
2024/01/12 08:14:58;;;;;;;30.15;15.73;;;;;;;-8.71;100.00;98554.94;5035067;28;20057;-61
2024/01/12 08:17:25;;;;;;;33.42;17.40;;;;;;;-8.63;100.00;98557.88;5035648;28;20452;-60
2024/01/12 08:19:51;;;;;;;33.72;16.95;;;;;;;-8.66;100.00;98553.66;5035780;28;20126;-61
2024/01/12 08:22:18;;;;;;;30.85;17.10;;;;;;;-8.60;100.00;98548.97;5035239;28;20041;-61
2024/01/12 08:24:44;;;;;;;32.10;17.40;;;;;;;-8.57;100.00;98556.63;5034081;28;20098;-61
2024/01/12 08:27:11;;;;;;;35.78;18.27;;;;;;;-8.50;100.00;98552.63;5032691;28;20302;-60
2024/01/12 08:29:40;;;;;;;32.92;18.35;;;;;;;-8.43;100.00;98558.31;5034900;28;20064;-60
2024/01/12 08:32:07;;;;;;;27.25;16.42;;;;;;;-8.36;100.00;98573.56;5040818;28;20174;-61
2024/01/12 08:34:33;;;;;;;35.13;18.25;;;;;;;-8.32;100.00;98571.59;5036319;28;20059;-60
2024/01/12 08:37:00;;;;;;;33.20;16.08;;;;;;;-8.17;100.00;98571.50;5039772;28;20049;-61
2024/01/12 08:39:26;;;;;;;33.10;16.95;;;;;;;-8.12;100.00;98577.28;5033203;28;20037;-61
2024/01/12 08:41:53;;;;;;;36.05;17.00;;;;;;;-8.10;100.00;98583.28;5040643;28;20112;-61
2024/01/12 08:44:19;;;;;;;31.92;16.50;;;;;;;-7.94;100.00;98595.38;5038126;28;20058;-61
2024/01/12 08:46:46;;;;;;;30.85;15.90;;;;;;;-7.86;100.00;98604.44;5033373;28;20479;-60
2024/01/12 08:49:12;;;;;;;34.28;18.45;;;;;;;-7.76;100.00;98599.41;5048000;28;20044;-60
2024/01/12 08:51:39;;;;;;;41.47;18.08;;;;;;;-7.59;100.00;98605.31;5038437;28;20206;-60
2024/01/12 08:54:06;;;;;;;33.72;18.95;;;;;;;-7.51;100.00;98602.16;5037605;28;20061;-60
2024/01/12 08:56:32;;;;;;;45.38;20.17;;;;;;;-7.44;100.00;98583.19;5037221;28;20041;-61
2024/01/12 08:58:59;;;;;;;35.30;19.45;;;;;;;-7.29;100.00;98595.38;5047439;28;22268;-61
2024/01/12 09:01:25;;;;;;;39.72;18.52;;;;;;;-7.26;100.00;98596.00;5044741;28;20056;-62
2024/01/12 09:03:52;;;;;;;42.42;21.75;;;;;;;-7.12;100.00;98602.94;5042765;28;20381;-62
2024/01/12 09:06:23;;;;;;;38.13;19.85;;;;;;;-7.01;100.00;98601.34;5039032;28;20561;-61
2024/01/12 09:08:50;;;;;;;41.95;22.63;;;;;;;-6.94;100.00;98600.78;5036618;28;20487;-60
2024/01/12 09:11:17;;;;;;;41.30;20.00;;;;;;;-6.86;100.00;98602.03;5027866;28;20041;-61
2024/01/12 09:13:44;;;;;;;44.83;20.83;;;;;;;-6.77;100.00;98600.50;5035136;28;20067;-61
2024/01/12 09:16:11;;;;;;;42.72;19.85;;;;;;;-6.68;100.00;98600.69;5052402;28;20064;-61
2024/01/12 09:18:37;;;;;;;47.85;21.95;;;;;;;-6.68;100.00;98600.69;5047291;28;20424;-61
2024/01/12 09:21:04;;;;;;;41.33;19.00;;;;;;;-6.63;100.00;98602.16;5042688;28;20585;-62
2024/01/12 09:23:31;;;;;;;37.92;19.10;;;;;;;-6.55;100.00;98607.72;5037897;28;20064;-62
2024/01/12 09:25:58;;;;;;;40.50;20.85;;;;;;;-6.50;100.00;98608.22;5035495;28;20201;-61
2024/01/12 09:28:24;;;;;;;40.80;21.23;;;;;;;-6.40;100.00;98603.09;5040743;28;20080;-61
2024/01/12 09:30:51;;;;;;;39.10;20.75;;;;;;;-6.29;100.00;98604.94;5042925;28;20098;-62
2024/01/12 09:33:17;;;;;;;42.03;21.92;;;;;;;-6.27;100.00;98618.84;5042994;28;20569;-61
2024/01/12 09:35:44;;;;;;;39.03;20.60;;;;;;;-6.22;100.00;98614.09;5035093;28;20231;-61
2024/01/12 09:38:11;;;;;;;44.05;20.27;;;;;;;-6.09;100.00;98610.53;5040538;28;20346;-61
2024/01/12 09:40:38;;;;;;;38.35;19.88;;;;;;;-6.04;100.00;98614.50;5039334;28;20037;-61
2024/01/12 09:43:12;;;;;;;42.03;22.17;;;;;;;-6.04;100.00;98626.84;5040718;28;20052;-62
2024/01/12 09:45:43;;;;;;;40.80;20.52;;;;;;;-6.01;100.00;98626.59;5041108;28;20632;-62
2024/01/12 09:48:10;;;;;;;48.20;22.10;;;;;;;-5.91;100.00;98618.81;5034393;28;20257;-62
2024/01/12 09:50:38;;;;;;;40.47;20.75;;;;;;;-5.78;100.00;98613.47;5028938;28;20049;-61
2024/01/12 09:53:06;;;;;;;45.30;21.77;;;;;;;-5.72;100.00;98610.34;5040977;28;20047;-62
2024/01/12 09:55:33;;;;;;;38.72;21.52;;;;;;;-5.66;100.00;98609.91;5035923;28;20083;-61
2024/01/12 09:58:01;;;;;;;44.55;21.00;;;;;;;-5.57;100.00;98608.31;5040262;28;20106;-62
2024/01/12 10:00:32;;;;;;;44.50;21.35;;;;;;;-5.49;100.00;98613.84;5041255;28;20043;-62
2024/01/12 10:02:59;;;;;;;45.97;23.50;;;;;;;-5.42;100.00;98606.31;5037137;28;20052;-62
2024/01/12 10:05:25;;;;;;;50.45;23.20;;;;;;;-5.46;100.00;98609.31;5040974;28;20049;-63
2024/01/12 10:07:52;;;;;;;36.72;19.70;;;;;;;-5.44;100.00;98610.03;5036369;28;20048;-61
2024/01/12 10:10:19;;;;;;;40.78;22.40;;;;;;;-5.46;100.00;98604.84;5038007;28;20529;-61
2024/01/12 10:12:49;;;;;;;48.97;22.95;;;;;;;-5.43;100.00;98609.06;5032722;28;20133;-61
2024/01/12 10:15:15;;;;;;;47.60;24.38;;;;;;;-5.41;100.00;98612.44;5038607;28;20151;-61
2024/01/12 10:17:42;;;;;;;46.75;23.63;;;;;;;-5.38;100.00;98607.75;5035446;28;20473;-62
2024/01/12 10:20:09;;;;;;;49.25;23.17;;;;;;;-5.32;100.00;98602.97;5042542;28;20120;-62
2024/01/12 10:22:36;;;;;;;46.15;24.40;;;;;;;-5.30;100.00;98601.03;5039521;28;20051;-63
2024/01/12 10:25:04;;;;;;;48.92;23.95;;;;;;;-5.24;100.00;98589.97;5041661;28;20085;-60
2024/01/12 10:27:31;;;;;;;58.50;25.17;;;;;;;-5.19;100.00;98595.75;5032738;28;20060;-61
2024/01/12 10:29:57;;;;;;;51.47;25.33;;;;;;;-5.17;100.00;98588.53;5037586;28;20559;-61
2024/01/12 10:32:25;;;;;;;44.95;25.42;;;;;;;-5.16;100.00;98582.28;5037126;28;20045;-60
2024/01/12 10:34:52;;;;;;;55.95;27.48;;;;;;;-5.05;100.00;98583.25;5042972;28;20590;-60
2024/01/12 10:37:20;;;;;;;46.38;25.70;;;;;;;-5.05;100.00;98592.00;5039336;28;20118;-60
2024/01/12 10:39:49;;;;;;;49.05;25.80;;;;;;;-4.98;100.00;98590.56;5040591;28;20099;-60
2024/01/12 10:42:17;;;;;;;46.25;24.67;;;;;;;-4.97;100.00;98591.41;5037222;28;20045;-60
2024/01/12 10:44:45;;;;;;;47.63;23.55;;;;;;;-4.88;100.00;98582.75;5036952;28;20527;-60
2024/01/12 10:47:20;;;;;;;49.92;25.38;;;;;;;-4.84;100.00;98576.25;5040039;28;20051;-60
2024/01/12 10:49:59;;;;;;;45.20;23.15;;;;;;;-4.77;100.00;98575.75;5034028;28;20069;-60
2024/01/12 10:52:45;;;;;;;43.05;22.27;;;;;;;-4.64;100.00;98571.16;5047737;28;20052;-60
2024/01/12 10:55:21;;;;;;;47.70;24.48;;;;;;;-4.67;100.00;98578.50;5030916;28;20037;-58
2024/01/12 10:57:48;;;;;;;44.72;24.00;;;;;;;-4.60;100.00;98587.63;5034503;28;20033;-60
2024/01/12 11:00:16;;;;;;;47.08;25.35;;;;;;;-4.60;100.00;98577.84;5038815;28;20131;-60
2024/01/12 11:02:44;;;;;;;44.90;23.67;;;;;;;-4.41;100.00;98576.38;5038247;28;20037;-59
2024/01/12 11:05:12;;;;;;;44.33;22.13;;;;;;;-4.36;100.00;98579.47;5041510;28;20086;-60
2024/01/12 11:07:39;;;;;;;43.42;21.35;;;;;;;-4.24;100.00;98580.25;5043938;28;20041;-60
2024/01/12 11:10:07;;;;;;;54.13;24.85;;;;;;;-4.16;100.00;98579.63;5036534;28;20044;-60